Ackerly, Texas
Current Conditions -  °F | °C
As of 8:15 AM on Thursday 27 Nov 2014 (Local Time) from KBPG Reporting Station
Clear Clear  
Wind Chill: 38°   Ceiling: Unl
Heat Index: 38°   Visibility: 10mi
Dew Point: 32°   Wind: 0mph
Humidity: 78%   Direction: NA
Pressure: 30.51"   Gusts: NA
Location:  32.53°N, 101.72°W
Report Text: KBPG 271415Z AUTO 00000KT 10SM CLR 04/00 A3051 RMK AO2 T00350000
Loading
Personal Weather Stations






























Interactive Weather Map New forecast layout! Learn more

10-Day Weather Forecast

Advertisements
Track Severe Weather on mobile